地図

経路データ

SID SEASON NUMBER BASIN SUBBASIN NAME ISO_TIME NATURE LAT LON WMO_WIND WMO_PRES WMO_AGENCY TRACK_TYPE DIST2LAND LANDFALL IFLAG USA_AGENCY USA_ATCF_ID USA_LAT USA_LON USA_RECORD USA_STATUS USA_WIND USA_PRES USA_SSHS USA_R34_NE USA_R34_SE USA_R34_SW USA_R34_NW USA_R50_NE USA_R50_SE USA_R50_SW USA_R50_NW USA_R64_NE USA_R64_SE USA_R64_SW USA_R64_NW USA_POCI USA_ROCI USA_RMW USA_EYE TOKYO_LAT TOKYO_LON TOKYO_GRADE TOKYO_WIND TOKYO_PRES TOKYO_R50_DIR TOKYO_R50_LONG TOKYO_R50_SHORT TOKYO_R30_DIR TOKYO_R30_LONG TOKYO_R30_SHORT TOKYO_LAND CMA_LAT CMA_LON CMA_CAT CMA_WIND CMA_PRES HKO_LAT HKO_LON HKO_CAT HKO_WIND HKO_PRES NEWDELHI_LAT NEWDELHI_LON NEWDELHI_GRADE NEWDELHI_WIND NEWDELHI_PRES NEWDELHI_CI NEWDELHI_DP NEWDELHI_POCI REUNION_LAT REUNION_LON REUNION_TYPE REUNION_WIND REUNION_PRES REUNION_TNUM REUNION_CI REUNION_RMW REUNION_R34_NE REUNION_R34_SE REUNION_R34_SW REUNION_R34_NW REUNION_R50_NE REUNION_R50_SE REUNION_R50_SW REUNION_R50_NW REUNION_R64_NE REUNION_R64_SE REUNION_R64_SW REUNION_R64_NW BOM_LAT BOM_LON BOM_TYPE BOM_WIND BOM_PRES BOM_TNUM BOM_CI BOM_RMW BOM_R34_NE BOM_R34_SE BOM_R34_SW BOM_R34_NW BOM_R50_NE BOM_R50_SE BOM_R50_SW BOM_R50_NW BOM_R64_NE BOM_R64_SE BOM_R64_SW BOM_R64_NW BOM_ROCI BOM_POCI BOM_EYE BOM_POS_METHOD BOM_PRES_METHOD NADI_LAT NADI_LON NADI_CAT NADI_WIND NADI_PRES WELLINGTON_LAT WELLINGTON_LON WELLINGTON_WIND WELLINGTON_PRES DS824_LAT DS824_LON DS824_STAGE DS824_WIND DS824_PRES TD9636_LAT TD9636_LON TD9636_STAGE TD9636_WIND TD9636_PRES TD9635_LAT TD9635_LON TD9635_WIND TD9635_PRES TD9635_ROCI NEUMANN_LAT NEUMANN_LON NEUMANN_CLASS NEUMANN_WIND NEUMANN_PRES MLC_LAT MLC_LON MLC_CLASS MLC_WIND MLC_PRES USA_GUST BOM_GUST BOM_GUST_PER REUNION_GUST REUNION_GUST_PER USA_SEAHGT USA_SEARAD_NE USA_SEARAD_SE USA_SEARAD_SW USA_SEARAD_NW STORM_SPEED STORM_DIR
1890283N14085 1890 34 NI BB NOT_NAMED 1890-10-10 00:00:00 TS 13.7000 84.6000 main 407 407 _________O____ -1 13.7000 84.6000 TC 30 0 0
1890283N14085 1890 34 NI BB NOT_NAMED 1890-10-10 03:00:00 TS 13.7000 84.6000 main 407 407 _________PO___ -1 13.7000 84.6000 TC 30 13.7000 84.6000 1 0 0
1890283N14085 1890 34 NI BB NOT_NAMED 1890-10-10 06:00:00 TS 13.7100 84.6006 main 407 407 _________OP___ -1 13.7000 84.6000 TC 30 13.7250 84.6015 1 0 0
1890283N14085 1890 34 NI BB NOT_NAMED 1890-10-10 09:00:00 TS 13.7171 84.6011 main 407 407 _________PP___ -1 13.7000 84.6000 TC 30 13.7400 84.6025 1 0 0
1890283N14085 1890 34 NI BB NOT_NAMED 1890-10-10 12:00:00 TS 13.7175 84.6011 main 407 407 _________OP___ -1 13.7000 84.6000 TC 30 13.7350 84.6022 1 0 0
1890283N14085 1890 34 NI BB NOT_NAMED 1890-10-10 15:00:00 TS 13.7000 84.6000 main 407 407 _________PO___ -1 13.7000 84.6000 TC 30 13.7000 84.6000 1 1 207
1890283N14085 1890 34 NI BB NOT_NAMED 1890-10-10 18:00:00 TS 13.6675 84.5980 main 407 407 _________OP___ -1 13.7000 84.6000 TC 30 13.6350 84.5960 1 1 0
1890283N14085 1890 34 NI BB NOT_NAMED 1890-10-10 21:00:00 TS 13.6175 84.5963 main 416 416 _________PP___ -1 13.6550 84.6000 TC 30 13.5800 84.5926 1 0 0
1890283N14085 1890 34 NI BB NOT_NAMED 1890-10-11 00:00:00 TS 13.6425 84.5964 main 416 398 _________OP___ -1 13.7000 84.6000 TC 30 13.5850 84.5929 1 2 0
1890283N14085 1890 34 NI BB NOT_NAMED 1890-10-11 03:00:00 TS 13.8125 84.5963 main 398 373 _________PO___ -1 13.9250 84.5925 TC 30 13.7000 84.6000 1 5 2
1890283N14085 1890 34 NI BB NOT_NAMED 1890-10-11 06:00:00 TS 14.1425 84.6029 main 373 332 _________OP___ -1 14.3000 84.6000 TC 30 13.9850 84.6058 1 8 3
1890283N14085 1890 34 NI BB NOT_NAMED 1890-10-11 09:00:00 TS 14.5825 84.6276 main 332 313 _________PP___ -1 14.7850 84.6350 TC 30 14.3800 84.6202 1 9 5
1890283N14085 1890 34 NI BB NOT_NAMED 1890-10-11 12:00:00 TS 15.0675 84.6748 main 306 284 _________OP___ -1 15.3000 84.7000 TC 30 14.8350 84.6496 1 9 7
1890283N14085 1890 34 NI BB NOT_NAMED 1890-10-11 15:00:00 TS 15.5075 84.7463 main 284 255 _________PO___ -1 15.7150 84.7925 TC 30 15.3000 84.7000 1 9 11
1890283N14085 1890 34 NI BB NOT_NAMED 1890-10-11 18:00:00 TS 15.9122 84.8452 main 255 231 _________OP___ -1 16.1000 84.9000 TC 30 15.7244 84.7903 1 9 14
1890283N14085 1890 34 NI BB NOT_NAMED 1890-10-11 21:00:00 TS 16.3338 84.9572 main 238 202 _________PP___ -1 16.5225 85.0149 TC 30 16.1450 84.8995 1 8 14
1890283N14085 1890 34 NI BB NOT_NAMED 1890-10-12 00:00:00 TS 16.7216 85.0545 main 208 179 _________OP___ -1 16.9000 85.1000 TC 30 16.5432 85.0091 1 7 11
1890283N14085 1890 34 NI BB NOT_NAMED 1890-10-12 03:00:00 TS 17.0362 85.1038 main 179 154 _________PO___ -1 17.1725 85.1076 TC 30 16.9000 85.1000 1 6 7
1890283N14085 1890 34 NI BB NOT_NAMED 1890-10-12 06:00:00 TS 17.2986 85.1214 main 154 138 _________OP___ -1 17.4000 85.1000 TC 30 17.1971 85.1428 1 5 3
1890283N14085 1890 34 NI BB NOT_NAMED 1890-10-12 09:00:00 TS 17.5512 85.1539 main 138 123 _________PP___ -1 17.6500 85.1425 TC 30 17.4524 85.1654 1 5 8
1890283N14085 1890 34 NI BB NOT_NAMED 1890-10-12 12:00:00 TS 17.7908 85.1901 main 123 107 _________OP___ -1 17.9000 85.2000 TC 30 17.6815 85.1802 1 5 9
1890283N14085 1890 34 NI BB NOT_NAMED 1890-10-12 15:00:00 TS 18.0287 85.2250 main 107 92 _________PO___ -1 18.1575 85.2500 TC 30 17.9000 85.2000 1 5 9
1890283N14085 1890 34 NI BB NOT_NAMED 1890-10-12 18:00:00 TS 18.2519 85.2634 main 92 86 _________OP___ -1 18.4000 85.3000 TC 30 18.1037 85.2269 1 4 10
1890283N14085 1890 34 NI BB NOT_NAMED 1890-10-12 21:00:00 TS 18.4412 85.2991 main 86 77 _________PP___ -1 18.5775 85.3351 TC 30 18.3049 85.2630 1 4 12
1890283N14085 1890 34 NI BB NOT_NAMED 1890-10-13 00:00:00 TS 18.6643 85.3588 main 80 64 _________OP___ -1 18.8000 85.4000 TC 30 18.5287 85.3176 1 6 16
1890283N14085 1890 34 NI BB NOT_NAMED 1890-10-13 03:00:00 TS 18.9850 85.4675 main 64 30 _________PO___ -1 19.1700 85.5349 TC 30 18.8000 85.4000 1 8 18
1890283N14085 1890 34 NI BB NOT_NAMED 1890-10-13 06:00:00 TS 19.3789 85.6085 main 30 0 _________OP___ -1 19.6000 85.7000 TC 30 19.1578 85.5170 1 9 19
1890283N14085 1890 34 NI BB NOT_NAMED 1890-10-13 09:00:00 TS 19.7850 85.7562 main 0 0 _________PP___ -1 20.0075 85.8501 TC 30 19.5626 85.6623 1 9 19
1890283N14085 1890 34 NI BB NOT_NAMED 1890-10-13 12:00:00 TS 20.1930 85.9132 main 0 0 _________OP___ -1 20.4000 86.0000 TC 30 19.9860 85.8264 1 9 20
1890283N14085 1890 34 NI BB NOT_NAMED 1890-10-13 15:00:00 TS 20.5787 86.0713 main 0 0 _________PO___ -1 20.7575 86.1426 TC 30 20.4000 86.0000 1 8 22
1890283N14085 1890 34 NI BB NOT_NAMED 1890-10-13 18:00:00 TS 20.9188 86.2285 main 0 0 _________OP___ -1 21.1000 86.3000 TC 30 20.7828 86.1749 1 8 25
1890283N14085 1890 34 NI BB NOT_NAMED 1890-10-13 21:00:00 TS 21.2616 86.4057 main 0 0 _________PP___ -1 21.4476 86.4897 TC 30 21.1376 86.3497 1 7 26
1890283N14085 1890 34 NI BB NOT_NAMED 1890-10-14 00:00:00 TS 21.5823 86.5831 main 0 0 _________OP___ -1 21.8000 86.7000 TC 30 21.4735 86.5246 1 6 27
1890283N14085 1890 34 NI BB NOT_NAMED 1890-10-14 03:00:00 NR 21.8000 86.7000 main 0 __________O___ -1 TC 21.8000 86.7000 1 5 27

IBTrACS Databaseについて

本データベースは、米国NOAAが公開する1842年以降の世界の熱帯低気圧のベストトラックデータアーカイブInternational Best Track Archive for Climate Stewardship (IBTrACS)を、ウェブで閲覧しやすい形式に変換したものです。

最終更新日:2021-10-08